sensor_id;sensor_type;location;lat;lon;timestamp;temperature;humidity
5304;DHT22;2674;49.722;10.892;2023-05-10T00:00:21;14.70;1.00
5304;DHT22;2674;49.722;10.892;2023-05-10T00:02:48;14.70;1.00
5304;DHT22;2674;49.722;10.892;2023-05-10T00:05:14;14.70;1.00
5304;DHT22;2674;49.722;10.892;2023-05-10T00:07:40;14.70;1.00
5304;DHT22;2674;49.722;10.892;2023-05-10T00:10:06;14.60;1.40
5304;DHT22;2674;49.722;10.892;2023-05-10T00:12:32;14.60;5.30
5304;DHT22;2674;49.722;10.892;2023-05-10T00:14:58;14.60;6.40
5304;DHT22;2674;49.722;10.892;2023-05-10T00:17:24;14.60;7.90
5304;DHT22;2674;49.722;10.892;2023-05-10T00:19:49;14.50;12.90
5304;DHT22;2674;49.722;10.892;2023-05-10T00:22:15;14.50;12.40
5304;DHT22;2674;49.722;10.892;2023-05-10T00:24:41;14.50;11.50
5304;DHT22;2674;49.722;10.892;2023-05-10T00:27:07;14.50;13.40
5304;DHT22;2674;49.722;10.892;2023-05-10T00:29:33;14.50;11.40
5304;DHT22;2674;49.722;10.892;2023-05-10T00:31:59;14.40;12.30
5304;DHT22;2674;49.722;10.892;2023-05-10T00:34:25;14.40;11.20
5304;DHT22;2674;49.722;10.892;2023-05-10T00:36:50;14.40;8.60
5304;DHT22;2674;49.722;10.892;2023-05-10T00:39:16;14.40;9.50
5304;DHT22;2674;49.722;10.892;2023-05-10T00:41:42;14.40;14.20
5304;DHT22;2674;49.722;10.892;2023-05-10T00:44:08;14.40;16.30
5304;DHT22;2674;49.722;10.892;2023-05-10T00:46:34;14.40;19.80
5304;DHT22;2674;49.722;10.892;2023-05-10T00:49:00;14.30;22.10
5304;DHT22;2674;49.722;10.892;2023-05-10T00:51:26;14.30;25.70
5304;DHT22;2674;49.722;10.892;2023-05-10T00:53:52;14.40;37.60
5304;DHT22;2674;49.722;10.892;2023-05-10T00:56:18;14.40;45.50
5304;DHT22;2674;49.722;10.892;2023-05-10T00:58:46;14.40;50.80
5304;DHT22;2674;49.722;10.892;2023-05-10T01:01:11;14.40;53.70
5304;DHT22;2674;49.722;10.892;2023-05-10T01:03:37;14.50;61.90
5304;DHT22;2674;49.722;10.892;2023-05-10T01:06:05;14.50;76.00
5304;DHT22;2674;49.722;10.892;2023-05-10T01:08:31;14.50;85.10
5304;DHT22;2674;49.722;10.892;2023-05-10T01:10:57;14.40;95.60
5304;DHT22;2674;49.722;10.892;2023-05-10T01:15:57;14.50;99.90
5304;DHT22;2674;49.722;10.892;2023-05-10T01:18:24;14.40;99.90
5304;DHT22;2674;49.722;10.892;2023-05-10T01:35:37;14.40;99.90
5304;DHT22;2674;49.722;10.892;2023-05-10T01:38:17;14.40;99.90
5304;DHT22;2674;49.722;10.892;2023-05-10T01:43:32;14.40;99.90
5304;DHT22;2674;49.722;10.892;2023-05-10T01:46:03;14.40;99.90
5304;DHT22;2674;49.722;10.892;2023-05-10T01:48:40;14.40;99.90
5304;DHT22;2674;49.722;10.892;2023-05-10T01:51:12;14.40;99.90
5304;DHT22;2674;49.722;10.892;2023-05-10T01:53:40;14.40;99.90
5304;DHT22;2674;49.722;10.892;2023-05-10T01:56:07;14.40;99.90
5304;DHT22;2674;49.722;10.892;2023-05-10T01:58:36;14.40;99.90
5304;DHT22;2674;49.722;10.892;2023-05-10T02:01:03;14.40;99.90
5304;DHT22;2674;49.722;10.892;2023-05-10T02:03:31;14.40;99.90
5304;DHT22;2674;49.722;10.892;2023-05-10T02:05:57;14.40;99.90
5304;DHT22;2674;49.722;10.892;2023-05-10T02:08:24;14.40;99.90
5304;DHT22;2674;49.722;10.892;2023-05-10T02:10:52;14.40;99.90
5304;DHT22;2674;49.722;10.892;2023-05-10T02:13:18;14.30;99.90
5304;DHT22;2674;49.722;10.892;2023-05-10T02:15:48;14.30;99.90
5304;DHT22;2674;49.722;10.892;2023-05-10T02:18:14;14.30;99.90
5304;DHT22;2674;49.722;10.892;2023-05-10T02:20:43;14.30;99.90
5304;DHT22;2674;49.722;10.892;2023-05-10T02:23:10;14.30;99.90
5304;DHT22;2674;49.722;10.892;2023-05-10T02:25:37;14.30;99.90
5304;DHT22;2674;49.722;10.892;2023-05-10T02:28:05;14.30;99.90
5304;DHT22;2674;49.722;10.892;2023-05-10T02:30:33;14.30;99.90
5304;DHT22;2674;49.722;10.892;2023-05-10T02:33:00;14.20;99.90
5304;DHT22;2674;49.722;10.892;2023-05-10T02:35:28;14.20;99.90
5304;DHT22;2674;49.722;10.892;2023-05-10T02:37:54;14.10;99.90
5304;DHT22;2674;49.722;10.892;2023-05-10T02:40:22;14.10;99.90
5304;DHT22;2674;49.722;10.892;2023-05-10T02:42:50;14.10;99.90
5304;DHT22;2674;49.722;10.892;2023-05-10T02:45:20;14.10;99.90
5304;DHT22;2674;49.722;10.892;2023-05-10T02:47:47;14.00;99.90
5304;DHT22;2674;49.722;10.892;2023-05-10T02:50:14;14.00;99.90
5304;DHT22;2674;49.722;10.892;2023-05-10T02:52:44;13.90;99.90
5304;DHT22;2674;49.722;10.892;2023-05-10T02:55:14;13.90;99.90
5304;DHT22;2674;49.722;10.892;2023-05-10T02:57:46;13.80;99.90
5304;DHT22;2674;49.722;10.892;2023-05-10T03:00:14;13.80;99.90
5304;DHT22;2674;49.722;10.892;2023-05-10T03:05:32;13.70;99.90
5304;DHT22;2674;49.722;10.892;2023-05-10T03:07:59;13.70;99.90
5304;DHT22;2674;49.722;10.892;2023-05-10T03:10:28;13.60;99.90
5304;DHT22;2674;49.722;10.892;2023-05-10T03:13:29;13.60;99.90
5304;DHT22;2674;49.722;10.892;2023-05-10T03:16:15;13.60;99.90
5304;DHT22;2674;49.722;10.892;2023-05-10T03:18:54;13.50;99.90
5304;DHT22;2674;49.722;10.892;2023-05-10T03:21:22;13.50;99.90
5304;DHT22;2674;49.722;10.892;2023-05-10T03:23:58;13.50;99.90
5304;DHT22;2674;49.722;10.892;2023-05-10T03:26:26;13.50;99.90
5304;DHT22;2674;49.722;10.892;2023-05-10T03:28:53;13.50;99.90
5304;DHT22;2674;49.722;10.892;2023-05-10T03:31:20;13.40;99.90
5304;DHT22;2674;49.722;10.892;2023-05-10T03:33:47;13.40;99.90
5304;DHT22;2674;49.722;10.892;2023-05-10T03:36:13;13.40;99.90
5304;DHT22;2674;49.722;10.892;2023-05-10T03:38:39;13.40;99.90
5304;DHT22;2674;49.722;10.892;2023-05-10T03:41:05;13.40;99.90
5304;DHT22;2674;49.722;10.892;2023-05-10T03:43:31;13.40;99.90
5304;DHT22;2674;49.722;10.892;2023-05-10T03:45:57;13.40;99.90
5304;DHT22;2674;49.722;10.892;2023-05-10T03:48:22;13.40;99.90
5304;DHT22;2674;49.722;10.892;2023-05-10T03:50:48;13.30;99.90
5304;DHT22;2674;49.722;10.892;2023-05-10T03:53:15;13.30;99.90
5304;DHT22;2674;49.722;10.892;2023-05-10T03:55:41;13.30;99.90
5304;DHT22;2674;49.722;10.892;2023-05-10T03:58:07;13.40;99.90
5304;DHT22;2674;49.722;10.892;2023-05-10T04:00:35;13.40;99.90
5304;DHT22;2674;49.722;10.892;2023-05-10T04:03:01;13.30;99.90
5304;DHT22;2674;49.722;10.892;2023-05-10T04:05:27;13.30;99.90
5304;DHT22;2674;49.722;10.892;2023-05-10T04:07:53;13.30;99.90
5304;DHT22;2674;49.722;10.892;2023-05-10T04:10:18;13.30;99.90
5304;DHT22;2674;49.722;10.892;2023-05-10T04:12:44;13.30;99.90
5304;DHT22;2674;49.722;10.892;2023-05-10T04:15:10;13.30;99.90
5304;DHT22;2674;49.722;10.892;2023-05-10T04:17:36;13.30;99.90
5304;DHT22;2674;49.722;10.892;2023-05-10T04:20:03;13.30;99.90
5304;DHT22;2674;49.722;10.892;2023-05-10T04:22:30;13.30;99.90
5304;DHT22;2674;49.722;10.892;2023-05-10T04:24:56;13.30;99.90
5304;DHT22;2674;49.722;10.892;2023-05-10T04:27:21;13.20;99.90
5304;DHT22;2674;49.722;10.892;2023-05-10T04:29:47;13.20;99.90
5304;DHT22;2674;49.722;10.892;2023-05-10T04:32:13;13.20;99.90
5304;DHT22;2674;49.722;10.892;2023-05-10T04:34:41;13.20;99.90
5304;DHT22;2674;49.722;10.892;2023-05-10T04:37:07;13.20;99.90
5304;DHT22;2674;49.722;10.892;2023-05-10T04:39:34;13.20;99.90
5304;DHT22;2674;49.722;10.892;2023-05-10T04:42:01;13.10;99.90
5304;DHT22;2674;49.722;10.892;2023-05-10T04:44:29;13.20;99.90
5304;DHT22;2674;49.722;10.892;2023-05-10T04:46:55;13.10;99.90
5304;DHT22;2674;49.722;10.892;2023-05-10T04:49:21;13.10;99.90
5304;DHT22;2674;49.722;10.892;2023-05-10T04:51:47;13.10;99.90
5304;DHT22;2674;49.722;10.892;2023-05-10T04:54:13;13.10;99.90
5304;DHT22;2674;49.722;10.892;2023-05-10T04:56:38;13.10;99.90
5304;DHT22;2674;49.722;10.892;2023-05-10T04:59:04;13.10;99.90
5304;DHT22;2674;49.722;10.892;2023-05-10T05:01:30;13.00;99.90
5304;DHT22;2674;49.722;10.892;2023-05-10T05:03:56;13.00;99.90
5304;DHT22;2674;49.722;10.892;2023-05-10T05:06:21;13.00;99.90
5304;DHT22;2674;49.722;10.892;2023-05-10T05:08:47;13.00;99.90
5304;DHT22;2674;49.722;10.892;2023-05-10T05:11:14;13.00;99.90
5304;DHT22;2674;49.722;10.892;2023-05-10T05:13:40;13.00;99.90
5304;DHT22;2674;49.722;10.892;2023-05-10T05:16:06;13.00;99.90
5304;DHT22;2674;49.722;10.892;2023-05-10T05:18:32;13.10;99.90
5304;DHT22;2674;49.722;10.892;2023-05-10T05:20:58;13.10;99.90
5304;DHT22;2674;49.722;10.892;2023-05-10T05:23:24;13.10;99.90
5304;DHT22;2674;49.722;10.892;2023-05-10T05:25:52;13.20;99.90
5304;DHT22;2674;49.722;10.892;2023-05-10T05:28:19;13.20;99.90
5304;DHT22;2674;49.722;10.892;2023-05-10T05:30:44;13.20;99.90
5304;DHT22;2674;49.722;10.892;2023-05-10T05:33:10;13.30;99.90
5304;DHT22;2674;49.722;10.892;2023-05-10T05:35:37;13.30;99.90
5304;DHT22;2674;49.722;10.892;2023-05-10T05:38:02;13.40;99.90
5304;DHT22;2674;49.722;10.892;2023-05-10T05:40:28;13.40;99.90
5304;DHT22;2674;49.722;10.892;2023-05-10T05:42:54;13.40;99.90
5304;DHT22;2674;49.722;10.892;2023-05-10T05:45:20;13.50;99.90
5304;DHT22;2674;49.722;10.892;2023-05-10T05:47:46;13.60;99.90
5304;DHT22;2674;49.722;10.892;2023-05-10T05:50:12;13.60;99.90
5304;DHT22;2674;49.722;10.892;2023-05-10T05:52:38;13.60;99.90
5304;DHT22;2674;49.722;10.892;2023-05-10T05:55:04;13.70;99.90
5304;DHT22;2674;49.722;10.892;2023-05-10T05:57:30;13.70;99.90
5304;DHT22;2674;49.722;10.892;2023-05-10T05:59:56;13.80;99.90
5304;DHT22;2674;49.722;10.892;2023-05-10T06:02:22;13.80;99.90
5304;DHT22;2674;49.722;10.892;2023-05-10T06:04:49;13.80;99.90
5304;DHT22;2674;49.722;10.892;2023-05-10T06:07:15;13.80;99.90
5304;DHT22;2674;49.722;10.892;2023-05-10T06:09:42;13.90;99.90
5304;DHT22;2674;49.722;10.892;2023-05-10T06:12:07;13.80;99.90
5304;DHT22;2674;49.722;10.892;2023-05-10T06:14:33;13.90;99.90
5304;DHT22;2674;49.722;10.892;2023-05-10T06:16:59;13.90;99.90
5304;DHT22;2674;49.722;10.892;2023-05-10T06:19:25;13.90;99.90
5304;DHT22;2674;49.722;10.892;2023-05-10T06:21:52;14.00;99.90
5304;DHT22;2674;49.722;10.892;2023-05-10T06:24:17;14.00;99.90
5304;DHT22;2674;49.722;10.892;2023-05-10T06:26:43;14.00;99.90
5304;DHT22;2674;49.722;10.892;2023-05-10T06:29:09;14.10;99.90
5304;DHT22;2674;49.722;10.892;2023-05-10T06:31:35;14.10;99.90
5304;DHT22;2674;49.722;10.892;2023-05-10T06:34:00;14.20;99.90
5304;DHT22;2674;49.722;10.892;2023-05-10T06:36:26;14.20;99.90
5304;DHT22;2674;49.722;10.892;2023-05-10T06:38:52;14.20;99.90
5304;DHT22;2674;49.722;10.892;2023-05-10T06:41:18;14.10;99.90
5304;DHT22;2674;49.722;10.892;2023-05-10T06:43:44;14.10;99.90
5304;DHT22;2674;49.722;10.892;2023-05-10T06:46:09;14.10;99.90
5304;DHT22;2674;49.722;10.892;2023-05-10T06:48:35;14.10;99.90
5304;DHT22;2674;49.722;10.892;2023-05-10T06:51:01;14.00;99.90
5304;DHT22;2674;49.722;10.892;2023-05-10T06:53:27;14.20;99.90
5304;DHT22;2674;49.722;10.892;2023-05-10T06:55:53;14.20;99.90
5304;DHT22;2674;49.722;10.892;2023-05-10T06:58:19;14.30;99.90
5304;DHT22;2674;49.722;10.892;2023-05-10T07:00:44;14.40;99.90
5304;DHT22;2674;49.722;10.892;2023-05-10T07:03:12;14.50;99.90
5304;DHT22;2674;49.722;10.892;2023-05-10T07:05:37;14.60;99.90
5304;DHT22;2674;49.722;10.892;2023-05-10T07:08:03;14.70;99.90
5304;DHT22;2674;49.722;10.892;2023-05-10T07:10:29;14.70;99.90
5304;DHT22;2674;49.722;10.892;2023-05-10T07:12:55;14.70;99.90
5304;DHT22;2674;49.722;10.892;2023-05-10T07:15:21;14.70;99.90
5304;DHT22;2674;49.722;10.892;2023-05-10T07:17:47;14.70;99.90
5304;DHT22;2674;49.722;10.892;2023-05-10T07:20:13;14.80;99.90
5304;DHT22;2674;49.722;10.892;2023-05-10T07:22:38;14.80;99.90
5304;DHT22;2674;49.722;10.892;2023-05-10T07:25:04;14.80;90.80
5304;DHT22;2674;49.722;10.892;2023-05-10T07:27:30;14.80;95.00
5304;DHT22;2674;49.722;10.892;2023-05-10T07:29:56;14.80;99.90
5304;DHT22;2674;49.722;10.892;2023-05-10T07:32:22;14.90;93.40
5304;DHT22;2674;49.722;10.892;2023-05-10T07:34:47;15.00;83.20
5304;DHT22;2674;49.722;10.892;2023-05-10T07:37:14;15.10;94.20
5304;DHT22;2674;49.722;10.892;2023-05-10T07:39:40;15.20;86.70
5304;DHT22;2674;49.722;10.892;2023-05-10T07:42:06;15.20;59.90
5304;DHT22;2674;49.722;10.892;2023-05-10T07:44:31;15.20;73.50
5304;DHT22;2674;49.722;10.892;2023-05-10T07:46:57;15.30;66.10
5304;DHT22;2674;49.722;10.892;2023-05-10T07:49:23;15.30;42.90
5304;DHT22;2674;49.722;10.892;2023-05-10T07:51:49;15.20;40.60
5304;DHT22;2674;49.722;10.892;2023-05-10T07:54:15;15.20;46.50
5304;DHT22;2674;49.722;10.892;2023-05-10T07:56:41;15.10;55.60
5304;DHT22;2674;49.722;10.892;2023-05-10T07:59:15;15.20;50.00
5304;DHT22;2674;49.722;10.892;2023-05-10T08:01:42;15.10;39.00
5304;DHT22;2674;49.722;10.892;2023-05-10T08:04:07;15.10;53.70
5304;DHT22;2674;49.722;10.892;2023-05-10T08:06:34;15.10;64.30
5304;DHT22;2674;49.722;10.892;2023-05-10T08:09:00;15.10;93.10
5304;DHT22;2674;49.722;10.892;2023-05-10T08:11:26;15.10;99.70
5304;DHT22;2674;49.722;10.892;2023-05-10T08:13:53;15.10;98.70
5304;DHT22;2674;49.722;10.892;2023-05-10T08:16:19;15.20;99.30
5304;DHT22;2674;49.722;10.892;2023-05-10T08:18:46;15.20;92.30
5304;DHT22;2674;49.722;10.892;2023-05-10T08:21:12;15.30;83.30
5304;DHT22;2674;49.722;10.892;2023-05-10T08:23:39;15.30;83.90
5304;DHT22;2674;49.722;10.892;2023-05-10T08:26:05;15.30;86.20
5304;DHT22;2674;49.722;10.892;2023-05-10T08:28:31;15.40;78.70
5304;DHT22;2674;49.722;10.892;2023-05-10T08:30:57;15.40;58.00
5304;DHT22;2674;49.722;10.892;2023-05-10T08:33:23;15.30;44.40
5304;DHT22;2674;49.722;10.892;2023-05-10T08:35:48;15.30;42.60
5304;DHT22;2674;49.722;10.892;2023-05-10T08:38:14;15.30;56.10
5304;DHT22;2674;49.722;10.892;2023-05-10T08:40:43;15.30;64.20
5304;DHT22;2674;49.722;10.892;2023-05-10T08:43:11;15.30;81.70
5304;DHT22;2674;49.722;10.892;2023-05-10T08:45:44;15.30;76.90
5304;DHT22;2674;49.722;10.892;2023-05-10T08:48:14;15.30;86.20
5304;DHT22;2674;49.722;10.892;2023-05-10T08:50:41;15.30;92.60
5304;DHT22;2674;49.722;10.892;2023-05-10T08:53:13;15.30;93.30
5304;DHT22;2674;49.722;10.892;2023-05-10T08:55:39;15.30;87.50
5304;DHT22;2674;49.722;10.892;2023-05-10T08:58:08;15.40;99.80
5304;DHT22;2674;49.722;10.892;2023-05-10T09:00:35;15.50;99.90
5304;DHT22;2674;49.722;10.892;2023-05-10T09:03:02;15.60;97.20
5304;DHT22;2674;49.722;10.892;2023-05-10T09:05:29;15.80;58.70
5304;DHT22;2674;49.722;10.892;2023-05-10T09:07:55;15.90;54.10
5304;DHT22;2674;49.722;10.892;2023-05-10T09:10:21;15.90;55.10
5304;DHT22;2674;49.722;10.892;2023-05-10T09:12:48;16.00;57.80
5304;DHT22;2674;49.722;10.892;2023-05-10T09:15:16;16.00;35.00
5304;DHT22;2674;49.722;10.892;2023-05-10T09:17:45;16.00;16.80
5304;DHT22;2674;49.722;10.892;2023-05-10T09:20:11;16.10;22.90
5304;DHT22;2674;49.722;10.892;2023-05-10T09:22:37;16.10;23.10
5304;DHT22;2674;49.722;10.892;2023-05-10T09:25:05;16.10;15.40
5304;DHT22;2674;49.722;10.892;2023-05-10T09:27:32;16.20;5.60
5304;DHT22;2674;49.722;10.892;2023-05-10T09:29:58;16.20;14.60
5304;DHT22;2674;49.722;10.892;2023-05-10T09:32:44;16.20;16.10
5304;DHT22;2674;49.722;10.892;2023-05-10T09:35:18;16.10;23.10
5304;DHT22;2674;49.722;10.892;2023-05-10T09:37:50;16.10;21.00
5304;DHT22;2674;49.722;10.892;2023-05-10T09:40:20;16.10;14.50
5304;DHT22;2674;49.722;10.892;2023-05-10T09:43:04;16.00;9.10
5304;DHT22;2674;49.722;10.892;2023-05-10T09:45:33;16.00;11.20
5304;DHT22;2674;49.722;10.892;2023-05-10T09:48:01;16.00;3.40
5304;DHT22;2674;49.722;10.892;2023-05-10T09:50:28;16.10;1.00
5304;DHT22;2674;49.722;10.892;2023-05-10T09:52:55;16.20;1.00
5304;DHT22;2674;49.722;10.892;2023-05-10T09:55:25;16.50;6.70
5304;DHT22;2674;49.722;10.892;2023-05-10T09:58:01;16.80;1.00
5304;DHT22;2674;49.722;10.892;2023-05-10T10:00:28;16.90;1.00
5304;DHT22;2674;49.722;10.892;2023-05-10T10:03:01;17.00;1.00
5304;DHT22;2674;49.722;10.892;2023-05-10T10:05:34;17.00;1.00
5304;DHT22;2674;49.722;10.892;2023-05-10T10:08:03;17.10;1.00
5304;DHT22;2674;49.722;10.892;2023-05-10T10:10:31;17.10;1.00
5304;DHT22;2674;49.722;10.892;2023-05-10T10:12:57;17.20;1.00
5304;DHT22;2674;49.722;10.892;2023-05-10T10:15:24;17.20;1.00
5304;DHT22;2674;49.722;10.892;2023-05-10T10:17:51;17.20;1.00
5304;DHT22;2674;49.722;10.892;2023-05-10T10:20:19;17.30;1.00
5304;DHT22;2674;49.722;10.892;2023-05-10T10:22:45;17.50;1.00
5304;DHT22;2674;49.722;10.892;2023-05-10T10:25:14;17.50;1.00
5304;DHT22;2674;49.722;10.892;2023-05-10T10:30:29;17.70;1.00
5304;DHT22;2674;49.722;10.892;2023-05-10T10:35:32;18.10;1.00
5304;DHT22;2674;49.722;10.892;2023-05-10T10:37:58;18.50;1.00
5304;DHT22;2674;49.722;10.892;2023-05-10T10:40:26;18.70;1.00
5304;DHT22;2674;49.722;10.892;2023-05-10T10:42:53;18.70;1.00
5304;DHT22;2674;49.722;10.892;2023-05-10T10:45:19;18.60;1.00
5304;DHT22;2674;49.722;10.892;2023-05-10T10:47:45;18.40;1.00
5304;DHT22;2674;49.722;10.892;2023-05-10T10:50:11;18.10;1.00
5304;DHT22;2674;49.722;10.892;2023-05-10T10:52:42;17.90;1.00
5304;DHT22;2674;49.722;10.892;2023-05-10T10:55:13;17.70;1.00
5304;DHT22;2674;49.722;10.892;2023-05-10T10:57:53;17.50;1.00
5304;DHT22;2674;49.722;10.892;2023-05-10T11:00:35;17.30;1.00
5304;DHT22;2674;49.722;10.892;2023-05-10T11:03:12;17.20;1.00
5304;DHT22;2674;49.722;10.892;2023-05-10T11:05:48;17.10;1.00
5304;DHT22;2674;49.722;10.892;2023-05-10T11:08:31;17.00;1.00
5304;DHT22;2674;49.722;10.892;2023-05-10T11:13:53;17.00;1.00
5304;DHT22;2674;49.722;10.892;2023-05-10T11:16:27;17.00;1.00
5304;DHT22;2674;49.722;10.892;2023-05-10T11:21:22;17.20;1.00
5304;DHT22;2674;49.722;10.892;2023-05-10T11:23:55;17.20;1.00
5304;DHT22;2674;49.722;10.892;2023-05-10T11:26:30;17.30;1.00
5304;DHT22;2674;49.722;10.892;2023-05-10T11:28:56;17.40;1.00
5304;DHT22;2674;49.722;10.892;2023-05-10T11:31:22;17.50;1.00
5304;DHT22;2674;49.722;10.892;2023-05-10T11:33:53;17.50;1.00
5304;DHT22;2674;49.722;10.892;2023-05-10T11:36:32;17.50;1.00
5304;DHT22;2674;49.722;10.892;2023-05-10T11:38:58;17.60;1.00
5304;DHT22;2674;49.722;10.892;2023-05-10T11:41:25;17.70;1.00
5304;DHT22;2674;49.722;10.892;2023-05-10T11:43:53;17.70;1.00
5304;DHT22;2674;49.722;10.892;2023-05-10T11:46:20;17.90;1.00
5304;DHT22;2674;49.722;10.892;2023-05-10T11:48:51;17.90;1.00
5304;DHT22;2674;49.722;10.892;2023-05-10T11:51:24;17.90;1.00
5304;DHT22;2674;49.722;10.892;2023-05-10T11:53:53;18.00;1.00
5304;DHT22;2674;49.722;10.892;2023-05-10T11:56:19;18.00;1.00
5304;DHT22;2674;49.722;10.892;2023-05-10T11:58:56;18.10;1.00
5304;DHT22;2674;49.722;10.892;2023-05-10T12:01:26;18.10;1.00
5304;DHT22;2674;49.722;10.892;2023-05-10T12:03:53;18.20;1.00
5304;DHT22;2674;49.722;10.892;2023-05-10T12:06:20;18.20;1.00
5304;DHT22;2674;49.722;10.892;2023-05-10T12:08:47;18.30;1.00
5304;DHT22;2674;49.722;10.892;2023-05-10T12:11:13;18.20;1.00
5304;DHT22;2674;49.722;10.892;2023-05-10T12:13:42;18.20;1.00
5304;DHT22;2674;49.722;10.892;2023-05-10T12:16:18;18.20;1.00
5304;DHT22;2674;49.722;10.892;2023-05-10T12:18:44;18.10;1.00
5304;DHT22;2674;49.722;10.892;2023-05-10T12:21:12;18.00;1.00
5304;DHT22;2674;49.722;10.892;2023-05-10T12:23:38;18.00;1.00
5304;DHT22;2674;49.722;10.892;2023-05-10T12:26:05;18.00;1.00
5304;DHT22;2674;49.722;10.892;2023-05-10T12:28:32;18.10;1.00
5304;DHT22;2674;49.722;10.892;2023-05-10T12:30:59;18.30;1.00
5304;DHT22;2674;49.722;10.892;2023-05-10T12:33:25;18.30;1.00
5304;DHT22;2674;49.722;10.892;2023-05-10T12:35:53;18.40;1.00
5304;DHT22;2674;49.722;10.892;2023-05-10T12:38:40;18.60;1.00
5304;DHT22;2674;49.722;10.892;2023-05-10T12:41:16;18.80;1.00
5304;DHT22;2674;49.722;10.892;2023-05-10T12:43:42;19.00;1.00
5304;DHT22;2674;49.722;10.892;2023-05-10T12:46:13;19.10;1.00
5304;DHT22;2674;49.722;10.892;2023-05-10T12:48:40;18.90;1.00
5304;DHT22;2674;49.722;10.892;2023-05-10T12:51:07;18.80;1.00
5304;DHT22;2674;49.722;10.892;2023-05-10T12:53:38;18.90;1.00
5304;DHT22;2674;49.722;10.892;2023-05-10T12:56:04;19.00;1.00
5304;DHT22;2674;49.722;10.892;2023-05-10T12:58:30;19.10;1.00
5304;DHT22;2674;49.722;10.892;2023-05-10T13:00:58;19.10;1.00
5304;DHT22;2674;49.722;10.892;2023-05-10T13:03:24;19.30;1.00
5304;DHT22;2674;49.722;10.892;2023-05-10T13:05:50;19.30;1.00
5304;DHT22;2674;49.722;10.892;2023-05-10T13:08:16;19.30;1.00
5304;DHT22;2674;49.722;10.892;2023-05-10T13:10:42;19.10;1.00
5304;DHT22;2674;49.722;10.892;2023-05-10T13:13:07;19.10;1.00
5304;DHT22;2674;49.722;10.892;2023-05-10T13:15:34;19.20;1.00
5304;DHT22;2674;49.722;10.892;2023-05-10T13:18:00;19.20;1.00
5304;DHT22;2674;49.722;10.892;2023-05-10T13:20:26;19.20;1.00
5304;DHT22;2674;49.722;10.892;2023-05-10T13:22:52;19.20;1.00
5304;DHT22;2674;49.722;10.892;2023-05-10T13:25:18;19.00;1.00
5304;DHT22;2674;49.722;10.892;2023-05-10T13:27:44;18.90;1.00
5304;DHT22;2674;49.722;10.892;2023-05-10T13:30:10;18.80;1.00
5304;DHT22;2674;49.722;10.892;2023-05-10T13:32:39;18.60;1.00
5304;DHT22;2674;49.722;10.892;2023-05-10T13:35:05;18.50;1.00
5304;DHT22;2674;49.722;10.892;2023-05-10T13:37:31;18.20;1.00
5304;DHT22;2674;49.722;10.892;2023-05-10T13:40:00;18.10;1.00
5304;DHT22;2674;49.722;10.892;2023-05-10T13:42:26;18.00;1.00
5304;DHT22;2674;49.722;10.892;2023-05-10T13:44:52;17.90;1.00
5304;DHT22;2674;49.722;10.892;2023-05-10T13:47:18;17.90;1.00
5304;DHT22;2674;49.722;10.892;2023-05-10T13:49:44;17.80;1.00
5304;DHT22;2674;49.722;10.892;2023-05-10T13:52:10;17.80;1.00
5304;DHT22;2674;49.722;10.892;2023-05-10T13:54:36;17.80;1.00
5304;DHT22;2674;49.722;10.892;2023-05-10T13:57:03;17.80;1.00
5304;DHT22;2674;49.722;10.892;2023-05-10T13:59:30;17.80;1.00
5304;DHT22;2674;49.722;10.892;2023-05-10T14:01:59;17.80;1.00
5304;DHT22;2674;49.722;10.892;2023-05-10T14:04:26;17.80;1.00
5304;DHT22;2674;49.722;10.892;2023-05-10T14:06:51;17.80;1.00
5304;DHT22;2674;49.722;10.892;2023-05-10T14:09:18;17.90;1.00
5304;DHT22;2674;49.722;10.892;2023-05-10T14:11:44;17.90;1.00
5304;DHT22;2674;49.722;10.892;2023-05-10T14:14:11;17.90;1.00
5304;DHT22;2674;49.722;10.892;2023-05-10T14:16:37;18.00;1.00
5304;DHT22;2674;49.722;10.892;2023-05-10T14:19:03;18.00;1.00
5304;DHT22;2674;49.722;10.892;2023-05-10T14:27:26;18.00;1.00
5304;DHT22;2674;49.722;10.892;2023-05-10T14:29:52;18.00;1.00
5304;DHT22;2674;49.722;10.892;2023-05-10T14:32:19;18.00;1.00
5304;DHT22;2674;49.722;10.892;2023-05-10T14:34:45;17.90;1.00
5304;DHT22;2674;49.722;10.892;2023-05-10T14:37:11;17.70;1.00
5304;DHT22;2674;49.722;10.892;2023-05-10T14:39:37;17.50;1.00
5304;DHT22;2674;49.722;10.892;2023-05-10T14:44:38;17.20;1.00
5304;DHT22;2674;49.722;10.892;2023-05-10T14:47:05;17.00;1.00
5304;DHT22;2674;49.722;10.892;2023-05-10T14:49:31;16.90;1.00
5304;DHT22;2674;49.722;10.892;2023-05-10T14:51:57;16.80;1.00
5304;DHT22;2674;49.722;10.892;2023-05-10T14:54:22;16.60;1.00
5304;DHT22;2674;49.722;10.892;2023-05-10T14:56:48;16.50;1.00
5304;DHT22;2674;49.722;10.892;2023-05-10T14:59:15;16.40;1.00
5304;DHT22;2674;49.722;10.892;2023-05-10T15:01:41;16.20;1.00
5304;DHT22;2674;49.722;10.892;2023-05-10T15:04:07;16.00;1.00
5304;DHT22;2674;49.722;10.892;2023-05-10T15:06:34;15.80;1.00
5304;DHT22;2674;49.722;10.892;2023-05-10T15:09:01;15.40;1.00
5304;DHT22;2674;49.722;10.892;2023-05-10T15:11:28;15.60;1.00
5304;DHT22;2674;49.722;10.892;2023-05-10T15:13:54;15.50;1.00
5304;DHT22;2674;49.722;10.892;2023-05-10T15:16:21;15.40;1.00
5304;DHT22;2674;49.722;10.892;2023-05-10T15:18:46;15.40;1.00
5304;DHT22;2674;49.722;10.892;2023-05-10T15:21:13;15.30;1.00
5304;DHT22;2674;49.722;10.892;2023-05-10T15:23:40;15.20;1.00
5304;DHT22;2674;49.722;10.892;2023-05-10T15:26:06;15.10;1.00
5304;DHT22;2674;49.722;10.892;2023-05-10T15:28:33;15.00;2.70
5304;DHT22;2674;49.722;10.892;2023-05-10T15:30:59;15.00;1.00
5304;DHT22;2674;49.722;10.892;2023-05-10T15:33:26;15.10;1.50
5304;DHT22;2674;49.722;10.892;2023-05-10T15:35:53;15.10;1.00
5304;DHT22;2674;49.722;10.892;2023-05-10T15:38:19;15.10;1.00
5304;DHT22;2674;49.722;10.892;2023-05-10T15:40:45;15.00;1.00
5304;DHT22;2674;49.722;10.892;2023-05-10T15:43:11;15.00;1.00
5304;DHT22;2674;49.722;10.892;2023-05-10T15:45:36;15.00;1.00
5304;DHT22;2674;49.722;10.892;2023-05-10T15:48:05;14.90;1.00
5304;DHT22;2674;49.722;10.892;2023-05-10T15:50:31;14.90;1.00
5304;DHT22;2674;49.722;10.892;2023-05-10T15:52:57;15.00;1.00
5304;DHT22;2674;49.722;10.892;2023-05-10T15:55:23;15.00;1.00
5304;DHT22;2674;49.722;10.892;2023-05-10T15:57:49;15.00;1.00
5304;DHT22;2674;49.722;10.892;2023-05-10T16:00:16;15.00;1.00
5304;DHT22;2674;49.722;10.892;2023-05-10T16:02:42;15.00;1.00
5304;DHT22;2674;49.722;10.892;2023-05-10T16:05:08;14.90;1.00
5304;DHT22;2674;49.722;10.892;2023-05-10T16:07:35;14.90;1.00
5304;DHT22;2674;49.722;10.892;2023-05-10T16:10:00;14.90;1.00
5304;DHT22;2674;49.722;10.892;2023-05-10T16:12:31;14.90;1.00
5304;DHT22;2674;49.722;10.892;2023-05-10T16:14:57;14.90;1.00
5304;DHT22;2674;49.722;10.892;2023-05-10T16:17:23;14.90;1.00
5304;DHT22;2674;49.722;10.892;2023-05-10T16:19:49;14.90;1.00
5304;DHT22;2674;49.722;10.892;2023-05-10T16:22:16;14.90;1.00
5304;DHT22;2674;49.722;10.892;2023-05-10T16:24:42;14.90;1.00
5304;DHT22;2674;49.722;10.892;2023-05-10T16:27:07;15.00;1.00
5304;DHT22;2674;49.722;10.892;2023-05-10T16:29:33;15.00;1.00
5304;DHT22;2674;49.722;10.892;2023-05-10T16:31:59;15.10;1.00
5304;DHT22;2674;49.722;10.892;2023-05-10T16:34:26;15.10;1.00